createdAt,value
2023-04-27T00:01:44.064Z,23.70
2023-04-27T00:04:11.594Z,23.50
2023-04-27T00:06:38.866Z,39.40
2023-04-27T00:09:06.025Z,30.30
2023-04-27T00:11:33.100Z,27.50
2023-04-27T00:14:00.184Z,30.10
2023-04-27T00:16:27.254Z,22.80
2023-04-27T00:18:54.337Z,18.60
2023-04-27T00:21:21.569Z,18.70
2023-04-27T00:23:48.606Z,23.10
2023-04-27T00:26:16.331Z,20.90
2023-04-27T00:28:44.299Z,23.40
2023-04-27T00:31:11.360Z,18.60
2023-04-27T00:33:38.483Z,18.10
2023-04-27T00:36:06.125Z,18.80
2023-04-27T00:38:33.231Z,21.40
2023-04-27T00:41:08.010Z,17.90
2023-04-27T00:43:45.836Z,23.00
2023-04-27T00:46:17.013Z,23.10
2023-04-27T00:48:44.833Z,25.80
2023-04-27T00:51:12.052Z,27.10
2023-04-27T00:53:39.500Z,18.30
2023-04-27T00:56:07.753Z,18.70
2023-04-27T00:58:35.059Z,23.50
2023-04-27T01:01:02.369Z,26.00
2023-04-27T01:03:31.036Z,31.70
2023-04-27T01:06:01.674Z,23.10
2023-04-27T01:08:29.496Z,27.70
2023-04-27T01:10:56.730Z,51.90
2023-04-27T01:13:23.799Z,22.10
2023-04-27T01:15:50.880Z,19.90
2023-04-27T01:18:18.032Z,43.20
2023-04-27T01:20:45.136Z,27.30
2023-04-27T01:23:17.250Z,27.70
2023-04-27T01:25:45.038Z,27.60
2023-04-27T01:28:12.752Z,22.10
2023-04-27T01:30:39.953Z,25.10
2023-04-27T01:33:07.164Z,26.40
2023-04-27T01:35:34.417Z,25.20
2023-04-27T01:38:01.736Z,23.70
2023-04-27T01:40:29.398Z,24.90
2023-04-27T01:42:56.606Z,22.50
2023-04-27T01:45:23.804Z,26.40
2023-04-27T01:47:52.487Z,20.90
2023-04-27T01:50:20.704Z,26.80
2023-04-27T01:52:47.974Z,22.50
2023-04-27T01:55:15.140Z,23.70
2023-04-27T01:57:42.513Z,18.90
2023-04-27T02:00:10.219Z,21.50
2023-04-27T02:02:51.308Z,20.50
2023-04-27T02:05:18.643Z,20.80
2023-04-27T02:07:46.049Z,16.10
2023-04-27T02:10:13.318Z,18.50
2023-04-27T02:12:40.694Z,21.10
2023-04-27T02:15:09.041Z,21.40
2023-04-27T02:17:36.263Z,18.40
2023-04-27T02:20:03.413Z,23.40
2023-04-27T02:22:30.505Z,19.90
2023-04-27T02:24:57.563Z,37.80
2023-04-27T02:27:24.737Z,25.60
2023-04-27T02:29:52.284Z,19.90
2023-04-27T02:32:19.792Z,19.50
2023-04-27T02:34:46.862Z,23.60
2023-04-27T02:37:13.825Z,16.80
2023-04-27T02:39:41.914Z,21.80
2023-04-27T02:42:09.033Z,20.60
2023-04-27T02:44:36.309Z,16.70
2023-04-27T02:47:03.551Z,20.50
2023-04-27T02:49:30.777Z,19.00
2023-04-27T02:51:57.850Z,19.50
2023-04-27T02:54:25.605Z,23.90
2023-04-27T02:56:52.689Z,20.10
2023-04-27T02:59:19.903Z,17.70
2023-04-27T03:01:47.105Z,18.00
2023-04-27T03:04:15.368Z,20.20
2023-04-27T03:06:42.703Z,23.40
2023-04-27T03:09:13.226Z,29.70
2023-04-27T03:11:40.590Z,151.60
2023-04-27T03:14:07.725Z,60.30
2023-04-27T03:16:35.271Z,33.70
2023-04-27T03:19:02.375Z,29.20
2023-04-27T03:21:31.917Z,26.40
2023-04-27T03:23:59.029Z,24.00
2023-04-27T03:26:26.503Z,27.40
2023-04-27T03:28:53.686Z,24.80
2023-04-27T03:31:20.721Z,25.40
2023-04-27T03:33:47.750Z,30.60
2023-04-27T03:36:15.611Z,22.10
2023-04-27T03:38:42.801Z,23.30
2023-04-27T03:41:10.071Z,21.60
2023-04-27T03:43:37.208Z,21.50
2023-04-27T03:46:04.443Z,39.40
2023-04-27T03:48:32.033Z,30.80
2023-04-27T03:51:00.664Z,29.60
2023-04-27T03:53:27.815Z,23.90
2023-04-27T03:55:55.002Z,22.00
2023-04-27T03:58:22.088Z,20.70
2023-04-27T04:01:06.785Z,22.80
2023-04-27T04:03:34.040Z,23.60
2023-04-27T04:06:03.665Z,18.60
2023-04-27T04:08:30.879Z,19.10
2023-04-27T04:10:57.940Z,18.70
2023-04-27T04:13:25.050Z,18.60
2023-04-27T04:16:01.772Z,30.40
2023-04-27T04:18:28.921Z,21.50
2023-04-27T04:20:56.334Z,21.90
2023-04-27T04:23:23.740Z,24.10
2023-04-27T04:25:51.408Z,21.70
2023-04-27T04:28:20.301Z,24.20
2023-04-27T04:30:47.600Z,34.00
2023-04-27T04:33:14.952Z,33.20
2023-04-27T04:35:42.334Z,27.10
2023-04-27T04:38:10.775Z,24.80
2023-04-27T04:40:43.839Z,24.00
2023-04-27T04:43:13.481Z,18.80
2023-04-27T04:45:42.797Z,23.30
2023-04-27T04:48:10.427Z,22.00
2023-04-27T04:50:39.469Z,91.80
2023-04-27T04:53:06.654Z,44.90
2023-04-27T04:55:33.932Z,23.90
2023-04-27T04:58:01.521Z,37.60
2023-04-27T05:00:28.857Z,24.30
2023-04-27T05:02:56.072Z,24.80
2023-04-27T05:05:23.310Z,22.20
2023-04-27T05:07:50.474Z,17.20
2023-04-27T05:10:17.751Z,15.70
2023-04-27T05:12:44.784Z,18.50
2023-04-27T05:15:12.158Z,17.50
2023-04-27T05:17:39.331Z,19.60
2023-04-27T05:20:07.965Z,19.40
2023-04-27T05:22:35.033Z,19.20
2023-04-27T05:25:02.221Z,21.00
2023-04-27T05:27:29.561Z,29.50
2023-04-27T05:29:56.899Z,36.20
2023-04-27T05:32:23.997Z,25.40
2023-04-27T05:34:51.350Z,22.30
2023-04-27T05:37:18.501Z,24.60
2023-04-27T05:39:45.613Z,20.90
2023-04-27T05:42:12.838Z,26.50
2023-04-27T05:44:39.979Z,20.90
2023-04-27T05:47:07.099Z,19.60
2023-04-27T05:49:34.129Z,19.40
2023-04-27T05:52:02.050Z,43.70
2023-04-27T05:54:29.151Z,24.20
2023-04-27T05:56:56.260Z,29.90
2023-04-27T05:59:23.394Z,19.10
2023-04-27T06:01:51.037Z,15.80
2023-04-27T06:04:18.296Z,28.30
2023-04-27T06:06:45.704Z,20.90
2023-04-27T06:09:12.962Z,16.60
2023-04-27T06:11:40.198Z,14.70
2023-04-27T06:14:07.311Z,20.70
2023-04-27T06:16:34.477Z,17.20
2023-04-27T06:19:01.732Z,13.30
2023-04-27T06:21:28.786Z,12.60
2023-04-27T06:23:55.851Z,12.60
2023-04-27T06:26:22.875Z,17.20
2023-04-27T06:28:49.981Z,14.10
2023-04-27T06:31:17.701Z,16.00
2023-04-27T06:33:44.831Z,12.90
2023-04-27T06:36:11.956Z,16.50
2023-04-27T06:38:39.118Z,12.20
2023-04-27T06:41:06.791Z,19.60
2023-04-27T06:43:33.942Z,12.40
2023-04-27T06:46:01.561Z,11.40
2023-04-27T06:48:28.691Z,14.00
2023-04-27T06:50:55.945Z,12.60
2023-04-27T06:53:23.060Z,12.20
2023-04-27T06:55:51.131Z,6.60
2023-04-27T06:58:18.271Z,18.30
2023-04-27T07:00:45.404Z,9.30
2023-04-27T07:03:12.660Z,11.60
2023-04-27T07:05:39.945Z,12.90
2023-04-27T07:08:08.742Z,10.50
2023-04-27T07:10:36.567Z,8.50
2023-04-27T07:13:03.623Z,7.60
2023-04-27T07:18:46.189Z,10.50
2023-04-27T07:21:13.206Z,6.80
2023-04-27T07:23:43.343Z,7.50
2023-04-27T07:26:10.580Z,10.10
2023-04-27T07:28:38.418Z,9.20
2023-04-27T07:31:06.299Z,10.20
2023-04-27T07:33:34.221Z,20.60
2023-04-27T07:36:02.809Z,9.60
2023-04-27T07:38:31.367Z,9.60
2023-04-27T07:41:01.828Z,14.90
2023-04-27T07:43:29.008Z,7.30
2023-04-27T07:45:58.557Z,6.20
2023-04-27T07:48:25.929Z,8.80
2023-04-27T07:50:53.885Z,8.80
2023-04-27T07:53:21.290Z,9.70
2023-04-27T07:55:48.374Z,7.90
2023-04-27T07:58:16.240Z,8.70
2023-04-27T08:00:43.411Z,11.10
2023-04-27T08:03:10.979Z,19.20
2023-04-27T08:05:38.516Z,11.10
2023-04-27T08:08:06.154Z,9.20
2023-04-27T08:10:33.444Z,10.80
2023-04-27T08:13:00.544Z,7.50
2023-04-27T08:15:27.889Z,18.50
2023-04-27T08:17:54.999Z,8.40
2023-04-27T08:20:22.154Z,9.20
2023-04-27T08:22:51.153Z,5.90
2023-04-27T08:25:18.273Z,7.50
2023-04-27T08:27:45.634Z,5.60
2023-04-27T08:30:13.284Z,10.80
2023-04-27T08:32:40.516Z,8.90
2023-04-27T08:35:07.938Z,12.50
2023-04-27T08:37:35.062Z,13.60
2023-04-27T08:40:05.907Z,7.20
2023-04-27T08:42:33.070Z,9.30
2023-04-27T08:45:00.358Z,8.80
2023-04-27T08:47:39.160Z,11.90
2023-04-27T08:50:10.029Z,7.90
2023-04-27T08:52:37.663Z,14.00
2023-04-27T08:55:05.296Z,11.90
2023-04-27T08:57:32.351Z,8.20
2023-04-27T09:00:01.094Z,7.60
2023-04-27T09:02:29.926Z,12.10
2023-04-27T09:04:57.437Z,7.60
2023-04-27T09:07:26.232Z,7.60
2023-04-27T09:10:03.729Z,10.70
2023-04-27T09:12:30.970Z,6.00
2023-04-27T09:15:04.118Z,9.90
2023-04-27T09:17:31.529Z,12.70
2023-04-27T09:20:09.247Z,5.80
2023-04-27T09:22:47.429Z,17.10
2023-04-27T09:25:32.063Z,14.60
2023-04-27T09:28:00.664Z,4.30
2023-04-27T09:30:29.446Z,4.60
2023-04-27T09:32:59.426Z,6.20
2023-04-27T09:35:32.757Z,5.00
2023-04-27T09:38:01.110Z,4.70
2023-04-27T09:40:31.289Z,4.20
2023-04-27T09:43:01.934Z,3.50
2023-04-27T09:45:29.731Z,4.60
2023-04-27T09:47:58.581Z,9.10
2023-04-27T09:50:26.127Z,15.10
2023-04-27T09:52:53.374Z,15.70
2023-04-27T09:55:27.442Z,5.30
2023-04-27T09:58:16.068Z,5.70
2023-04-27T10:00:53.430Z,3.40
2023-04-27T10:03:39.127Z,3.70
2023-04-27T10:06:24.979Z,3.60
2023-04-27T10:08:52.209Z,7.50
2023-04-27T10:11:19.564Z,3.70
2023-04-27T10:13:56.015Z,16.00
2023-04-27T10:16:23.182Z,9.70
2023-04-27T10:18:56.567Z,3.20
2023-04-27T10:21:27.212Z,8.30
2023-04-27T10:23:54.680Z,5.60
2023-04-27T10:26:25.770Z,6.60
2023-04-27T10:29:09.256Z,4.40
2023-04-27T10:31:44.119Z,4.20
2023-04-27T10:34:15.838Z,7.40
2023-04-27T10:36:43.119Z,3.30
2023-04-27T10:39:29.921Z,3.60
2023-04-27T10:42:03.482Z,2.40
2023-04-27T10:44:32.280Z,7.30
2023-04-27T10:47:13.346Z,4.70
2023-04-27T10:49:40.860Z,7.50
2023-04-27T10:52:08.502Z,4.30
2023-04-27T10:54:37.564Z,10.30
2023-04-27T10:57:08.896Z,4.60
2023-04-27T10:59:48.507Z,4.20
2023-04-27T11:02:16.152Z,3.80
2023-04-27T11:04:43.458Z,3.40
2023-04-27T11:07:11.080Z,9.70
2023-04-27T11:09:40.735Z,6.60
2023-04-27T11:12:09.473Z,4.90
2023-04-27T11:14:37.116Z,7.30
2023-04-27T11:17:05.206Z,10.90
2023-04-27T11:19:32.817Z,11.60
2023-04-27T11:22:07.148Z,8.50
2023-04-27T11:24:34.401Z,5.50
2023-04-27T11:27:01.599Z,8.60
2023-04-27T11:29:38.047Z,6.00
2023-04-27T11:32:06.091Z,5.60
2023-04-27T11:34:39.059Z,6.40
2023-04-27T11:37:17.984Z,6.40
2023-04-27T11:39:46.072Z,14.10
2023-04-27T11:42:20.746Z,7.70
2023-04-27T11:45:01.425Z,6.20
2023-04-27T11:47:30.350Z,3.90
2023-04-27T11:49:59.966Z,5.00
2023-04-27T11:52:31.916Z,6.70
2023-04-27T11:55:00.605Z,13.20
2023-04-27T11:57:29.612Z,7.50
2023-04-27T12:00:00.567Z,3.00
2023-04-27T12:02:29.365Z,3.70
2023-04-27T12:04:58.864Z,4.80
2023-04-27T12:07:26.535Z,7.90
2023-04-27T12:09:53.650Z,6.40
2023-04-27T12:12:22.798Z,2.40
2023-04-27T12:14:51.110Z,8.60
2023-04-27T12:17:18.448Z,4.90
2023-04-27T12:19:45.690Z,9.10
2023-04-27T12:22:13.022Z,4.50
2023-04-27T12:24:40.176Z,11.00
2023-04-27T12:27:07.789Z,7.60
2023-04-27T12:29:34.984Z,10.90
2023-04-27T12:32:02.225Z,10.50
2023-04-27T12:34:29.516Z,13.50
2023-04-27T12:36:56.691Z,16.30
2023-04-27T12:39:25.606Z,4.50
2023-04-27T12:41:53.636Z,8.30
2023-04-27T12:44:21.703Z,6.00
2023-04-27T12:46:49.212Z,15.00
2023-04-27T12:49:17.686Z,4.50
2023-04-27T12:51:46.858Z,7.40
2023-04-27T12:54:14.306Z,3.90
2023-04-27T12:56:42.140Z,8.10
2023-04-27T12:59:09.484Z,9.40
2023-04-27T13:01:36.858Z,8.10
2023-04-27T13:04:06.166Z,5.60
2023-04-27T13:06:33.457Z,8.50
2023-04-27T13:09:00.761Z,6.60
2023-04-27T13:11:27.957Z,6.40
2023-04-27T13:13:55.308Z,3.20
2023-04-27T13:16:25.499Z,3.70
2023-04-27T13:18:53.560Z,29.80
2023-04-27T13:21:21.397Z,9.20
2023-04-27T13:23:49.411Z,10.40
2023-04-27T13:26:17.159Z,4.70
2023-04-27T13:28:44.307Z,6.80
2023-04-27T13:31:12.047Z,3.40
2023-04-27T13:33:42.271Z,5.30
2023-04-27T13:36:10.966Z,9.10
2023-04-27T13:38:38.418Z,7.30
2023-04-27T13:41:06.817Z,8.20
2023-04-27T13:43:34.283Z,9.00
2023-04-27T13:46:02.605Z,8.40
2023-04-27T13:48:31.073Z,4.60
2023-04-27T13:50:58.363Z,3.50
2023-04-27T13:53:26.120Z,7.00
2023-04-27T13:55:56.765Z,7.80
2023-04-27T13:58:26.035Z,8.40
2023-04-27T14:00:54.078Z,4.20
2023-04-27T14:03:21.887Z,4.50
2023-04-27T14:05:51.113Z,7.10
2023-04-27T14:08:18.651Z,6.10
2023-04-27T14:10:46.536Z,3.60
2023-04-27T14:13:14.064Z,9.90
2023-04-27T14:15:41.959Z,6.80
2023-04-27T14:18:09.488Z,3.30
2023-04-27T14:20:38.065Z,10.40
2023-04-27T14:23:06.364Z,5.20
2023-04-27T14:25:34.871Z,2.10
2023-04-27T14:28:06.426Z,4.60
2023-04-27T14:30:34.842Z,6.50
2023-04-27T14:33:02.707Z,5.10
2023-04-27T14:35:30.236Z,9.50
2023-04-27T14:38:02.346Z,6.30
2023-04-27T14:40:30.746Z,4.70
2023-04-27T14:42:58.705Z,3.90
2023-04-27T14:45:33.515Z,12.50
2023-04-27T14:48:04.342Z,6.10
2023-04-27T14:50:31.899Z,8.00
2023-04-27T14:52:58.968Z,3.90
2023-04-27T14:55:26.072Z,22.60
2023-04-27T14:57:53.250Z,4.40
2023-04-27T15:00:20.579Z,4.50
2023-04-27T15:02:47.845Z,9.20
2023-04-27T15:05:15.026Z,5.10
2023-04-27T15:07:42.154Z,8.90
2023-04-27T15:10:09.765Z,5.30
2023-04-27T15:12:36.842Z,7.60
2023-04-27T15:15:05.037Z,12.90
2023-04-27T15:17:32.179Z,4.80
2023-04-27T15:19:59.394Z,13.10
2023-04-27T15:22:28.008Z,8.70
2023-04-27T15:24:55.067Z,2.50
2023-04-27T15:27:22.315Z,5.30
2023-04-27T15:29:49.424Z,6.20
2023-04-27T15:32:16.659Z,12.60
2023-04-27T15:34:44.813Z,4.60
2023-04-27T15:37:12.255Z,8.20
2023-04-27T15:39:39.363Z,10.40
2023-04-27T15:42:06.582Z,8.70
2023-04-27T15:44:33.711Z,10.90
2023-04-27T15:47:00.946Z,16.60
2023-04-27T15:49:28.735Z,17.20
2023-04-27T15:51:55.884Z,19.00
2023-04-27T15:54:23.264Z,22.40
2023-04-27T15:56:50.486Z,20.40
2023-04-27T15:59:18.456Z,26.60
2023-04-27T16:01:45.567Z,23.10
2023-04-27T16:04:12.785Z,14.90
2023-04-27T16:06:39.984Z,33.60
2023-04-27T16:09:10.431Z,35.20
2023-04-27T16:11:37.989Z,31.70
2023-04-27T16:14:05.248Z,33.60
2023-04-27T16:16:32.425Z,30.50
2023-04-27T16:18:59.599Z,35.40
2023-04-27T16:21:28.120Z,18.40
2023-04-27T16:23:55.426Z,27.60
2023-04-27T16:26:22.600Z,39.80
2023-04-27T16:28:50.612Z,41.20
2023-04-27T16:31:17.683Z,275.00
2023-04-27T16:33:47.124Z,24.20
2023-04-27T16:36:14.345Z,23.50
2023-04-27T16:38:41.699Z,9.70
2023-04-27T16:41:08.848Z,11.10
2023-04-27T16:43:35.998Z,64.90
2023-04-27T16:46:03.140Z,25.80
2023-04-27T16:48:30.610Z,13.80
2023-04-27T16:50:57.812Z,5.70
2023-04-27T16:53:25.595Z,8.30
2023-04-27T16:55:52.950Z,15.30
2023-04-27T16:58:20.064Z,7.60
2023-04-27T17:00:47.101Z,11.60
2023-04-27T17:03:14.731Z,13.10
2023-04-27T17:05:42.039Z,15.00
2023-04-27T17:08:09.142Z,26.40
2023-04-27T17:10:36.970Z,24.90
2023-04-27T17:13:05.125Z,39.30
2023-04-27T17:15:32.450Z,8.20
2023-04-27T17:18:02.478Z,21.50
2023-04-27T17:20:29.617Z,9.70
2023-04-27T17:22:56.782Z,10.90
2023-04-27T17:25:24.092Z,13.50
2023-04-27T17:27:51.466Z,27.90
2023-04-27T17:30:18.682Z,24.20
2023-04-27T17:32:46.128Z,21.50
2023-04-27T17:35:13.367Z,20.60
2023-04-27T17:37:40.924Z,26.10
2023-04-27T17:40:09.260Z,26.30
2023-04-27T17:42:36.632Z,57.30
2023-04-27T17:45:04.047Z,65.30
2023-04-27T17:47:32.284Z,36.10
2023-04-27T17:49:59.440Z,29.80
2023-04-27T17:52:26.508Z,27.00
2023-04-27T17:54:53.610Z,52.80
2023-04-27T17:57:20.679Z,55.60
2023-04-27T17:59:47.832Z,43.90
2023-04-27T18:02:15.100Z,32.70
2023-04-27T18:04:42.759Z,24.20
2023-04-27T18:07:09.898Z,20.20
2023-04-27T18:09:37.033Z,15.90
2023-04-27T18:12:10.754Z,21.90
2023-04-27T18:14:38.630Z,26.30
2023-04-27T18:17:06.369Z,24.70
2023-04-27T18:19:33.477Z,16.80
2023-04-27T18:22:00.615Z,19.50
2023-04-27T18:24:27.672Z,32.60
2023-04-27T18:26:54.912Z,82.30
2023-04-27T18:29:22.158Z,159.30
2023-04-27T18:31:49.423Z,251.70
2023-04-27T18:34:16.667Z,175.10
2023-04-27T18:36:43.714Z,124.10
2023-04-27T18:39:10.969Z,131.50
2023-04-27T18:41:38.054Z,147.60
2023-04-27T18:44:06.202Z,150.00
2023-04-27T18:46:33.693Z,126.70
2023-04-27T18:49:01.754Z,157.70
2023-04-27T18:51:29.371Z,176.10
2023-04-27T18:53:56.540Z,182.30
2023-04-27T18:56:23.943Z,199.60
2023-04-27T18:58:51.255Z,216.20
2023-04-27T19:01:23.723Z,161.80
2023-04-27T19:03:51.536Z,135.90
2023-04-27T19:06:20.959Z,117.60
2023-04-27T19:08:48.637Z,106.80
2023-04-27T19:11:15.790Z,145.70
2023-04-27T19:13:44.301Z,162.30
2023-04-27T19:16:12.204Z,173.60
2023-04-27T19:18:40.757Z,166.20
2023-04-27T19:21:10.077Z,139.10
2023-04-27T19:23:37.666Z,150.40
2023-04-27T19:28:34.923Z,202.40
2023-04-27T19:31:02.353Z,202.30
2023-04-27T19:33:29.660Z,152.90
2023-04-27T19:35:58.781Z,150.00
2023-04-27T19:38:26.262Z,179.30
2023-04-27T19:40:53.494Z,160.20
2023-04-27T19:43:21.009Z,141.30
2023-04-27T19:45:51.666Z,181.40
2023-04-27T19:48:18.880Z,237.40
2023-04-27T19:50:46.093Z,227.00
2023-04-27T19:53:13.419Z,196.90
2023-04-27T19:55:40.849Z,226.30
2023-04-27T19:58:08.127Z,370.70
2023-04-27T20:00:35.460Z,519.60
2023-04-27T20:03:02.780Z,753.50
2023-04-27T20:05:30.428Z,844.80
2023-04-27T20:07:57.753Z,818.30
2023-04-27T20:10:24.780Z,778.90
2023-04-27T20:12:56.557Z,770.30
2023-04-27T20:15:25.473Z,719.90
2023-04-27T20:17:53.823Z,737.60
2023-04-27T20:20:21.130Z,1047.50
2023-04-27T20:22:48.291Z,622.50
2023-04-27T20:25:15.950Z,493.20
2023-04-27T20:27:42.999Z,278.50
2023-04-27T20:30:10.558Z,180.70
2023-04-27T20:32:40.353Z,105.30
2023-04-27T20:35:11.567Z,75.20
2023-04-27T20:37:40.180Z,93.50
2023-04-27T20:40:08.190Z,103.70
2023-04-27T20:42:36.121Z,196.10
2023-04-27T20:45:05.536Z,213.20
2023-04-27T20:47:32.787Z,299.40
2023-04-27T20:49:59.998Z,374.70
2023-04-27T20:52:30.580Z,309.70
2023-04-27T20:54:58.950Z,415.20
2023-04-27T20:57:26.166Z,323.60
2023-04-27T20:59:53.182Z,313.20
2023-04-27T21:02:20.452Z,255.40
2023-04-27T21:04:47.786Z,187.30
2023-04-27T21:07:15.028Z,114.10
2023-04-27T21:09:42.224Z,77.00
2023-04-27T21:12:09.715Z,51.30
2023-04-27T21:14:37.615Z,59.00
2023-04-27T21:17:04.792Z,41.90
2023-04-27T21:19:32.037Z,58.50
2023-04-27T21:21:59.178Z,52.30
2023-04-27T21:24:26.251Z,54.80
2023-04-27T21:26:53.435Z,75.00
2023-04-27T21:29:20.556Z,56.20
2023-04-27T21:31:47.630Z,66.90
2023-04-27T21:34:15.094Z,60.60
2023-04-27T21:36:42.466Z,66.30
2023-04-27T21:39:09.539Z,45.60
2023-04-27T21:41:37.241Z,44.30
2023-04-27T21:44:04.486Z,35.20
2023-04-27T21:46:31.746Z,42.60
2023-04-27T21:48:58.908Z,37.90
2023-04-27T21:51:26.426Z,34.00
2023-04-27T21:53:53.645Z,36.60
2023-04-27T21:56:21.301Z,32.90
2023-04-27T21:58:48.484Z,35.50
2023-04-27T22:01:15.674Z,31.20
2023-04-27T22:03:43.247Z,35.20
2023-04-27T22:06:10.803Z,34.10
2023-04-27T22:08:38.007Z,39.80
2023-04-27T22:11:05.207Z,38.90
2023-04-27T22:13:32.332Z,40.40
2023-04-27T22:15:59.475Z,49.30
2023-04-27T22:18:26.649Z,45.90
2023-04-27T22:20:58.358Z,46.00
2023-04-27T22:23:25.473Z,49.70
2023-04-27T22:25:52.612Z,116.10
2023-04-27T22:28:19.768Z,120.00
2023-04-27T22:30:47.098Z,83.80
2023-04-27T22:33:14.456Z,69.70
2023-04-27T22:35:41.584Z,63.40
2023-04-27T22:38:09.489Z,67.10
2023-04-27T22:40:36.954Z,83.50
2023-04-27T22:43:04.098Z,120.80
2023-04-27T22:45:32.010Z,203.40
2023-04-27T22:47:59.314Z,155.40
2023-04-27T22:50:26.994Z,254.90
2023-04-27T22:52:54.092Z,296.50
2023-04-27T22:55:21.375Z,246.10
2023-04-27T22:57:50.082Z,177.70
2023-04-27T23:00:17.499Z,154.30
2023-04-27T23:02:44.879Z,93.70
2023-04-27T23:05:12.634Z,139.90
2023-04-27T23:07:43.613Z,155.60
2023-04-27T23:10:11.251Z,84.30
2023-04-27T23:12:38.969Z,70.80
2023-04-27T23:15:07.498Z,79.40
2023-04-27T23:17:36.068Z,93.30
2023-04-27T23:20:24.118Z,83.40
2023-04-27T23:22:54.930Z,67.20
2023-04-27T23:25:22.326Z,64.60
2023-04-27T23:27:51.326Z,66.10
2023-04-27T23:30:20.589Z,74.00
2023-04-27T23:32:47.754Z,88.50
2023-04-27T23:35:14.944Z,128.30
2023-04-27T23:37:42.055Z,113.20
2023-04-27T23:40:09.427Z,82.00
2023-04-27T23:42:36.909Z,70.50
2023-04-27T23:45:05.117Z,73.20
2023-04-27T23:47:34.194Z,82.50
2023-04-27T23:50:02.456Z,77.40
2023-04-27T23:52:29.735Z,49.60
2023-04-27T23:54:58.492Z,39.40
2023-04-27T23:57:25.778Z,49.60
2023-04-27T23:59:53.162Z,42.00
